Time;durP1;ratioP1;P1;durP2;ratioP2;P2;SDS_P1;SDS_P2;PMS_P1;PMS_P2;Temp;Humidity;BMP_temperature;BMP_pressure;BME280_temperature;BME280_humidity;BME280_pressure;Samples;Min_cycle;Max_cycle;Signal;HPM_P1;HPM_P2
2022/06/12 00:00:19;;;;;;;10.75;3.78;;;;;;;13.44;85.39;102126.91;5016736;28;20034;-83
2022/06/12 00:02:44;;;;;;;11.30;3.08;;;;;;;13.40;85.45;102129.19;5017002;28;20123;-82
2022/06/12 00:05:16;;;;;;;12.97;3.23;;;;;;;13.37;84.29;102123.31;5016745;28;20030;-82
2022/06/12 00:07:42;;;;;;;13.82;3.08;;;;;;;13.31;85.01;102117.56;4999059;28;20053;-82
2022/06/12 00:10:08;;;;;;;12.80;3.13;;;;;;;13.25;85.12;102123.84;4998732;28;20030;-83
2022/06/12 00:12:35;;;;;;;10.75;3.30;;;;;;;13.20;85.83;102129.06;4999007;28;20030;-83
2022/06/12 00:15:00;;;;;;;10.95;3.35;;;;;;;13.19;85.25;102132.84;4998927;28;20434;-82
2022/06/12 00:17:26;;;;;;;8.33;3.23;;;;;;;13.16;85.47;102130.50;4966777;28;20050;-82
2022/06/12 00:19:51;;;;;;;11.13;3.73;;;;;;;13.12;85.40;102119.19;4982971;28;20120;-83
2022/06/12 00:22:17;;;;;;;18.92;3.63;;;;;;;13.05;85.77;102118.31;4982961;28;20038;-82
2022/06/12 00:24:43;;;;;;;11.70;3.87;;;;;;;12.98;85.41;102118.25;4999031;28;20488;-83
2022/06/12 00:27:08;;;;;;;11.80;3.53;;;;;;;12.94;86.10;102116.13;4966395;28;20034;-83
2022/06/12 00:29:36;;;;;;;16.50;3.80;;;;;;;12.86;85.79;102119.00;4999060;28;20036;-83
2022/06/12 00:32:13;;;;;;;10.48;2.95;;;;;;;12.86;85.64;102113.56;4999037;28;20093;-82
2022/06/12 00:34:48;;;;;;;13.13;3.90;;;;;;;12.84;87.66;102124.66;4998848;28;20097;-83
2022/06/12 00:37:13;;;;;;;17.08;4.40;;;;;;;12.82;88.97;102126.75;4998766;28;20516;-82
2022/06/12 00:39:41;;;;;;;10.60;3.70;;;;;;;12.81;88.60;102120.47;4998654;28;20038;-83
2022/06/12 00:42:08;;;;;;;17.30;4.13;;;;;;;12.80;88.43;102121.50;4981856;28;20106;-82
2022/06/12 00:44:38;;;;;;;15.63;3.28;;;;;;;12.73;87.02;102122.50;5016598;28;20033;-83
2022/06/12 00:47:15;;;;;;;9.73;3.05;;;;;;;12.67;86.58;102117.81;4998633;28;20034;-82
2022/06/12 00:49:41;;;;;;;14.80;4.30;;;;;;;12.60;88.33;102117.78;4998567;28;20025;-83
2022/06/12 00:52:11;;;;;;;13.67;3.97;;;;;;;12.57;88.03;102121.75;4998146;28;20477;-83
2022/06/12 00:54:39;;;;;;;17.17;3.47;;;;;;;12.50;88.03;102131.72;5016475;28;20513;-83
2022/06/12 00:57:06;;;;;;;14.55;3.90;;;;;;;12.46;89.32;102125.84;4998390;28;20030;-82
2022/06/12 00:59:34;;;;;;;12.93;3.73;;;;;;;12.48;89.51;102130.25;4997577;28;20041;-82
2022/06/12 01:02:00;;;;;;;16.85;3.75;;;;;;;12.44;90.67;102119.75;4998225;28;20418;-82
2022/06/12 01:07:19;;;;;;;13.85;3.90;;;;;;;12.33;88.13;102123.03;5015671;28;20048;-82
2022/06/12 01:09:48;;;;;;;18.35;3.10;;;;;;;12.30;87.83;102115.25;4998620;28;20040;-83
2022/06/12 01:12:18;;;;;;;12.47;3.47;;;;;;;12.22;88.07;102123.53;5015745;28;20033;-82
2022/06/12 01:14:52;;;;;;;11.80;3.65;;;;;;;12.19;88.67;102119.31;4997678;28;20217;-82
2022/06/12 01:17:20;;;;;;;8.65;3.25;;;;;;;12.18;89.20;102125.81;4997869;28;20030;-83
2022/06/12 01:19:53;;;;;;;14.30;3.47;;;;;;;12.16;88.81;102118.88;5015364;28;20037;-82
2022/06/12 01:22:47;;;;;;;9.73;3.25;;;;;;;12.18;88.97;102130.41;4997748;28;20041;-82
2022/06/12 01:25:31;;;;;;;12.87;3.17;;;;;;;12.13;90.21;102130.97;4997937;28;20093;-82
2022/06/12 01:28:02;;;;;;;12.38;3.30;;;;;;;12.08;89.81;102125.31;4998203;28;20072;-82
2022/06/12 01:30:31;;;;;;;13.23;3.55;;;;;;;12.04;89.22;102122.09;4997782;28;20029;-82
2022/06/12 01:33:25;;;;;;;8.63;3.10;;;;;;;12.00;88.18;102126.28;5015110;28;20080;-83
2022/06/12 01:36:29;;;;;;;11.35;3.63;;;;;;;11.95;89.07;102122.44;4997539;28;20060;-83
2022/06/12 01:39:06;;;;;;;10.83;3.10;;;;;;;11.88;88.81;102123.16;4938474;29;20143;-83
2022/06/12 01:41:40;;;;;;;15.45;2.95;;;;;;;11.79;89.09;102116.16;4989193;28;20046;-82
2022/06/12 01:44:24;;;;;;;12.52;3.42;;;;;;;11.76;89.05;102114.66;4997388;28;20046;-82
2022/06/12 01:47:00;;;;;;;9.75;3.17;;;;;;;11.71;89.28;102108.16;4997224;28;20034;-83
2022/06/12 01:49:28;;;;;;;12.45;3.63;;;;;;;11.69;90.44;102112.91;4997466;28;20022;-82
2022/06/12 01:52:09;;;;;;;11.23;3.50;;;;;;;11.64;89.51;102112.66;4997454;28;20041;-82
2022/06/12 01:55:00;;;;;;;14.02;3.63;;;;;;;11.64;91.23;102116.22;4997173;28;20021;-82
2022/06/12 01:57:40;;;;;;;12.43;3.40;;;;;;;11.60;91.66;102114.91;4997349;28;20030;-83
2022/06/12 02:00:06;;;;;;;13.55;4.07;;;;;;;11.59;91.35;102113.25;4997009;28;20433;-82
2022/06/12 02:02:44;;;;;;;11.20;3.57;;;;;;;11.58;91.64;102108.84;4997225;28;20069;-82
2022/06/12 02:05:16;;;;;;;12.38;3.50;;;;;;;11.56;92.03;102109.03;4996854;28;20481;-83
2022/06/12 02:07:48;;;;;;;10.73;3.47;;;;;;;11.52;91.61;102115.03;4996961;28;20029;-82
2022/06/12 02:10:23;;;;;;;12.45;3.72;;;;;;;11.54;92.45;102118.41;4996448;28;20029;-82
2022/06/12 02:13:11;;;;;;;11.90;3.38;;;;;;;11.50;91.84;102114.38;4997088;28;20052;-82
2022/06/12 02:15:45;;;;;;;10.33;3.30;;;;;;;11.48;93.36;102116.44;5014314;28;20046;-82
2022/06/12 02:18:43;;;;;;;9.48;3.50;;;;;;;11.44;92.10;102129.59;4996856;28;20049;-82
2022/06/12 02:21:17;;;;;;;11.00;4.15;;;;;;;11.41;93.41;102129.94;4954336;28;20068;-82
2022/06/12 02:24:25;;;;;;;13.52;3.88;;;;;;;11.38;91.79;102125.75;5014407;28;20061;-83
2022/06/12 02:27:05;;;;;;;11.88;3.70;;;;;;;11.33;93.74;102135.50;4918947;29;20438;-83
2022/06/12 02:29:49;;;;;;;15.37;4.13;;;;;;;11.28;92.65;102130.63;4992143;28;20537;-82
2022/06/12 02:32:34;;;;;;;11.13;3.80;;;;;;;11.23;nan;102123.06;4996354;28;20477;-82
2022/06/12 02:35:31;;;;;;;11.63;3.60;;;;;;;11.17;93.04;102117.50;5014252;28;20050;-82
2022/06/12 02:38:02;;;;;;;11.57;4.28;;;;;;;11.14;92.95;102112.47;4980682;28;20504;-82
2022/06/12 02:40:32;;;;;;;8.63;3.38;;;;;;;11.15;92.69;102114.16;4995777;28;20038;-82
2022/06/12 02:43:03;;;;;;;12.63;3.50;;;;;;;11.21;93.11;102107.97;4996327;28;20029;-82
2022/06/12 02:45:47;;;;;;;14.73;3.80;;;;;;;11.26;92.40;102108.22;4996699;28;20061;-82
2022/06/12 02:48:13;;;;;;;14.43;3.75;;;;;;;11.29;92.46;102107.00;5013857;28;20531;-82
2022/06/12 02:50:46;;;;;;;11.30;3.47;;;;;;;11.27;92.89;102107.19;4996456;28;20497;-82
2022/06/12 02:53:20;;;;;;;11.27;3.88;;;;;;;11.21;92.63;102099.81;5013792;28;20382;-82
2022/06/12 02:56:00;;;;;;;14.43;4.00;;;;;;;11.21;92.49;102100.66;4996317;28;20087;-82
2022/06/12 02:58:41;;;;;;;12.60;3.80;;;;;;;11.19;93.53;102105.44;4996567;28;20081;-82
2022/06/12 03:01:18;;;;;;;8.43;3.42;;;;;;;11.21;93.06;102107.97;4996500;28;20405;-82
2022/06/12 03:03:52;;;;;;;11.48;3.53;;;;;;;11.21;93.18;102103.34;5012564;28;20026;-82
2022/06/12 03:06:19;;;;;;;8.70;3.75;;;;;;;11.23;93.17;102103.16;5012767;28;20042;-82
2022/06/12 03:08:50;;;;;;;12.77;4.40;;;;;;;11.19;93.08;102100.00;5013142;28;20116;-82
2022/06/12 03:11:24;;;;;;;15.45;3.97;;;;;;;11.22;94.12;102104.22;5011929;28;20034;-82
2022/06/12 03:13:52;;;;;;;14.00;4.28;;;;;;;11.19;93.61;102110.00;5012355;28;20060;-82
2022/06/12 03:16:24;;;;;;;10.32;3.90;;;;;;;11.17;94.45;102110.19;5012533;28;20477;-82
2022/06/12 03:19:03;;;;;;;10.27;3.75;;;;;;;11.14;93.99;102121.44;5013869;28;20063;-82
2022/06/12 03:21:31;;;;;;;11.07;4.20;;;;;;;11.13;94.23;102113.47;5013936;28;20038;-83
2022/06/12 03:24:16;;;;;;;12.88;3.75;;;;;;;11.13;94.29;102119.78;5016979;28;20062;-82
2022/06/12 03:26:52;;;;;;;11.45;4.00;;;;;;;11.13;94.82;102117.06;4999995;28;20064;-82
2022/06/12 03:29:32;;;;;;;13.85;4.00;;;;;;;11.12;94.99;102111.81;5000156;28;20469;-82
2022/06/12 03:32:18;;;;;;;16.60;4.93;;;;;;;11.14;95.32;102118.72;5017893;28;20152;-82
2022/06/12 03:34:53;;;;;;;21.87;5.37;;;;;;;11.15;95.42;102122.31;5016201;28;20121;-82
2022/06/12 03:37:36;;;;;;;12.10;4.78;;;;;;;11.12;95.34;102109.94;5017561;28;20109;-82
2022/06/12 03:40:32;;;;;;;11.70;5.32;;;;;;;11.14;94.93;102109.75;5015819;28;20021;-82
2022/06/12 03:43:38;;;;;;;15.10;4.80;;;;;;;11.11;95.05;102127.25;4991766;28;20133;-82
2022/06/12 03:46:14;;;;;;;13.32;4.45;;;;;;;11.10;95.38;102122.00;5017343;28;20033;-82
2022/06/12 03:48:51;;;;;;;11.27;4.67;;;;;;;11.05;95.21;102126.13;5016382;28;20026;-82
2022/06/12 03:51:39;;;;;;;15.07;4.95;;;;;;;11.01;95.26;102127.56;5016311;28;20037;-82
2022/06/12 03:54:15;;;;;;;13.30;5.03;;;;;;;10.97;95.30;102123.50;5016279;28;20052;-82
2022/06/12 03:59:42;;;;;;;11.90;4.32;;;;;;;11.00;95.97;102125.03;5017262;28;20188;-83
2022/06/12 04:02:12;;;;;;;11.83;4.57;;;;;;;11.03;95.58;102127.38;5015863;28;20040;-83
2022/06/12 04:04:40;;;;;;;12.85;5.07;;;;;;;11.03;94.90;102130.09;5015926;28;20168;-82
2022/06/12 04:07:09;;;;;;;13.43;4.70;;;;;;;11.05;94.74;102130.72;5015772;28;20036;-82
2022/06/12 04:09:38;;;;;;;13.60;4.80;;;;;;;11.05;93.76;102130.72;5017151;28;20030;-82
2022/06/12 04:12:09;;;;;;;12.45;4.22;;;;;;;11.05;93.71;102125.28;5015080;28;20470;-82
2022/06/12 04:14:40;;;;;;;12.60;4.40;;;;;;;11.06;93.25;102116.94;5015420;28;20042;-82
2022/06/12 04:17:06;;;;;;;14.70;4.45;;;;;;;11.08;93.47;102124.09;5017117;28;20037;-82
2022/06/12 04:19:58;;;;;;;17.08;5.30;;;;;;;11.09;93.74;102117.59;4999298;28;20390;-82
2022/06/12 04:22:22;;;;;;;9.77;3.90;;;;;;;11.09;93.06;102117.59;5016778;28;20492;-82
2022/06/12 04:24:54;;;;;;;14.40;4.40;;;;;;;11.15;92.96;102119.59;5015629;28;20058;-82
2022/06/12 04:27:31;;;;;;;15.65;4.32;;;;;;;11.16;91.62;102119.41;5015600;28;20029;-82
2022/06/12 04:30:01;;;;;;;9.23;3.95;;;;;;;11.18;91.44;102130.06;5016608;28;20032;-82
2022/06/12 04:32:28;;;;;;;12.20;4.20;;;;;;;11.18;91.56;102121.94;5016496;28;20371;-82
2022/06/12 04:34:54;;;;;;;12.23;4.10;;;;;;;11.21;91.25;102133.25;5013908;28;20435;-82
2022/06/12 04:37:24;;;;;;;12.45;4.50;;;;;;;11.29;90.38;102143.16;5015175;28;20076;-82
2022/06/12 04:39:51;;;;;;;12.13;3.80;;;;;;;11.32;89.96;102136.50;5015569;28;20056;-82
2022/06/12 04:42:19;;;;;;;11.32;4.10;;;;;;;11.37;89.72;102143.06;4998398;28;20401;-82
2022/06/12 04:44:45;;;;;;;12.10;3.60;;;;;;;11.43;89.35;102138.75;5015344;28;20025;-82
2022/06/12 04:47:14;;;;;;;11.57;3.95;;;;;;;11.47;88.79;102137.34;5015175;28;20382;-82
2022/06/12 04:49:40;;;;;;;16.73;4.22;;;;;;;11.55;89.05;102144.56;5015046;28;20477;-82
2022/06/12 04:52:07;;;;;;;11.35;4.85;;;;;;;11.60;88.27;102139.38;5014868;28;20044;-83
2022/06/12 04:54:35;;;;;;;8.77;4.03;;;;;;;11.66;87.89;102143.22;4999041;28;20030;-82
2022/06/12 04:57:01;;;;;;;9.52;4.05;;;;;;;11.70;87.45;102137.19;5016224;28;20486;-82
2022/06/12 04:59:27;;;;;;;10.18;3.78;;;;;;;11.75;87.20;102136.63;5016528;28;20025;-82
2022/06/12 05:01:53;;;;;;;17.58;4.63;;;;;;;11.80;87.26;102131.47;5016058;28;20030;-82
2022/06/12 05:04:20;;;;;;;11.83;4.17;;;;;;;11.89;87.49;102134.91;5014867;28;20044;-82
2022/06/12 05:06:49;;;;;;;12.93;4.50;;;;;;;11.95;86.71;102131.44;5014574;28;20435;-82
2022/06/12 05:09:15;;;;;;;10.30;4.15;;;;;;;12.00;86.69;102129.00;5014945;28;20381;-82
2022/06/12 05:11:42;;;;;;;11.10;3.63;;;;;;;12.05;86.60;102121.09;4997945;28;20543;-82
2022/06/12 05:14:07;;;;;;;12.47;4.00;;;;;;;12.14;86.00;102132.69;5014453;28;20181;-82
2022/06/12 05:16:37;;;;;;;9.38;3.92;;;;;;;12.20;85.95;102129.16;5015843;28;20081;-82
2022/06/12 05:19:05;;;;;;;14.30;4.13;;;;;;;12.27;85.82;102137.41;5014692;28;20080;-82
2022/06/12 05:21:31;;;;;;;16.05;4.80;;;;;;;12.34;85.78;102145.63;5014277;28;20092;-82
2022/06/12 05:23:59;;;;;;;11.80;4.00;;;;;;;12.40;85.54;102125.78;4997754;28;20038;-82
2022/06/12 05:26:25;;;;;;;14.93;4.03;;;;;;;12.44;85.16;102124.34;5014482;28;20383;-82
2022/06/12 05:28:50;;;;;;;16.98;4.47;;;;;;;12.53;85.52;102128.59;5014294;28;20069;-82
2022/06/12 05:31:17;;;;;;;17.97;4.67;;;;;;;12.61;85.18;102124.94;5014251;28;20367;-83
2022/06/12 05:33:43;;;;;;;11.25;4.25;;;;;;;12.71;85.89;102128.16;5014100;28;20026;-84
2022/06/12 05:36:12;;;;;;;15.82;3.67;;;;;;;12.84;85.73;102126.53;4997776;28;20037;-84
2022/06/12 05:38:37;;;;;;;15.55;4.78;;;;;;;12.97;85.75;102126.63;5014543;28;20033;-83
2022/06/12 05:41:03;;;;;;;14.17;4.10;;;;;;;13.06;84.80;102130.88;5014126;28;20056;-83
2022/06/12 05:43:31;;;;;;;14.07;4.13;;;;;;;13.14;83.91;102133.44;5014161;28;20549;-83
2022/06/12 05:45:56;;;;;;;14.85;4.53;;;;;;;13.23;84.23;102135.97;4997624;28;20536;-83
2022/06/12 05:48:22;;;;;;;19.37;4.63;;;;;;;13.32;83.86;102126.63;5013870;28;20034;-83
2022/06/12 05:50:57;;;;;;;12.82;4.43;;;;;;;13.39;82.85;102132.97;4997747;28;20029;-83
2022/06/12 05:53:25;;;;;;;18.52;4.75;;;;;;;13.51;82.92;102133.22;5015301;28;20385;-84
2022/06/12 05:55:51;;;;;;;19.05;4.28;;;;;;;13.66;83.26;102136.63;5013936;28;20033;-84
2022/06/12 05:58:18;;;;;;;18.70;4.30;;;;;;;13.75;82.69;102141.91;4997568;28;20038;-85
2022/06/12 06:00:44;;;;;;;12.85;4.13;;;;;;;13.81;82.28;102141.91;5014613;28;20477;-85
2022/06/12 06:03:13;;;;;;;17.38;4.63;;;;;;;13.90;82.23;102145.31;5013581;28;20035;-85
2022/06/12 06:05:40;;;;;;;16.30;4.35;;;;;;;14.01;82.36;102139.25;4996998;28;20036;-85
2022/06/12 06:08:11;;;;;;;18.08;4.60;;;;;;;14.08;82.21;102136.53;4996873;28;20520;-86
2022/06/12 06:10:43;;;;;;;24.03;4.63;;;;;;;14.13;82.65;102136.75;5014753;28;20034;-91
2022/06/12 06:13:09;;;;;;;18.38;4.95;;;;;;;14.19;83.09;102141.38;5014521;28;20026;-85
2022/06/12 06:15:35;;;;;;;17.60;4.30;;;;;;;14.30;82.85;102139.91;4996618;28;20112;-85
2022/06/12 06:18:03;;;;;;;17.43;4.23;;;;;;;14.42;82.79;102150.22;4997316;28;20381;-85
2022/06/12 06:20:33;;;;;;;18.42;4.35;;;;;;;14.56;83.00;102162.81;4997110;28;20029;-84
2022/06/12 06:22:59;;;;;;;19.63;4.35;;;;;;;14.64;82.66;102150.88;4996770;28;20030;-84
2022/06/12 06:25:27;;;;;;;20.25;4.43;;;;;;;14.67;83.05;102151.28;4996726;28;20033;-83
2022/06/12 06:27:53;;;;;;;29.83;5.20;;;;;;;14.77;82.86;102150.03;4996598;28;20033;-83
2022/06/12 06:30:20;;;;;;;18.67;5.93;;;;;;;14.90;83.05;102152.75;5006520;28;20033;-83
2022/06/12 06:32:45;;;;;;;15.52;4.60;;;;;;;15.06;82.60;102146.81;5016316;28;20075;-83
2022/06/12 06:35:12;;;;;;;24.27;5.30;;;;;;;15.30;82.08;102157.28;4999905;28;20033;-83
2022/06/12 06:37:42;;;;;;;29.58;5.25;;;;;;;15.50;82.19;102160.78;4999933;28;20081;-84
2022/06/12 06:40:10;;;;;;;20.55;4.55;;;;;;;15.64;81.12;102158.00;5015969;28;20124;-85
2022/06/12 06:42:36;;;;;;;23.65;5.38;;;;;;;15.72;81.18;102161.34;5015801;28;20041;-85
2022/06/12 06:47:49;;;;;;;22.30;5.07;;;;;;;15.75;80.54;102165.50;5019123;28;20044;-84
2022/06/12 06:50:20;;;;;;;19.40;4.95;;;;;;;15.79;80.30;102164.88;5016359;28;20474;-85
2022/06/12 06:52:46;;;;;;;23.90;5.20;;;;;;;15.84;79.96;102172.47;5015873;28;20037;-84
2022/06/12 06:55:12;;;;;;;20.83;5.82;;;;;;;15.88;79.98;102172.84;5015693;28;20029;-84
2022/06/12 06:57:41;;;;;;;22.23;5.93;;;;;;;15.98;79.16;102177.88;5015296;28;20090;-83
2022/06/12 07:00:10;;;;;;;25.13;5.67;;;;;;;16.15;78.41;102170.81;5016007;28;20277;-84
2022/06/12 07:02:35;;;;;;;22.10;5.72;;;;;;;16.26;77.41;102167.34;5015841;28;20029;-83
2022/06/12 07:05:00;;;;;;;17.40;5.43;;;;;;;16.37;76.93;102167.69;5015747;28;20576;-83
2022/06/12 07:07:26;;;;;;;16.57;5.47;;;;;;;16.44;76.97;102163.00;4999343;28;20280;-83
2022/06/12 07:09:52;;;;;;;23.20;4.97;;;;;;;16.56;77.02;102165.88;5015390;28;20116;-83
2022/06/12 07:12:17;;;;;;;23.53;5.83;;;;;;;16.71;76.08;102169.13;4998866;28;20034;-84
2022/06/12 07:14:42;;;;;;;29.17;6.60;;;;;;;16.76;76.69;102162.97;5033048;28;20057;-83
2022/06/12 07:17:08;;;;;;;19.63;4.83;;;;;;;16.78;75.66;102163.56;4999624;28;20092;-83
2022/06/12 07:19:34;;;;;;;17.40;5.10;;;;;;;16.83;75.19;102163.75;4982986;28;20466;-83
2022/06/12 07:22:00;;;;;;;16.75;5.47;;;;;;;16.80;74.70;102169.66;5015423;28;20044;-84
2022/06/12 07:24:26;;;;;;;17.45;5.35;;;;;;;16.89;76.02;102173.84;5015313;28;20036;-84
2022/06/12 07:26:52;;;;;;;22.48;6.05;;;;;;;16.93;74.66;102166.84;5015610;28;20034;-84
2022/06/12 07:29:19;;;;;;;22.17;5.17;;;;;;;17.05;74.63;102172.41;5015869;28;20083;-84
2022/06/12 07:31:46;;;;;;;19.98;6.20;;;;;;;17.20;72.77;102169.31;4999144;28;20030;-83
2022/06/12 07:34:12;;;;;;;15.73;4.80;;;;;;;17.30;71.79;102171.50;5015455;28;20036;-84
2022/06/12 07:36:39;;;;;;;17.40;5.30;;;;;;;17.14;72.41;102175.66;5033326;28;20150;-84
2022/06/12 07:39:11;;;;;;;19.85;5.53;;;;;;;17.05;72.85;102166.94;4999210;28;20503;-82
2022/06/12 07:41:37;;;;;;;20.20;4.73;;;;;;;17.14;72.96;102170.19;5014984;28;20116;-84
2022/06/12 07:44:03;;;;;;;17.60;5.50;;;;;;;17.15;72.73;102174.63;4999161;28;20068;-83
2022/06/12 07:46:29;;;;;;;21.05;5.85;;;;;;;17.15;72.19;102164.47;5015583;28;20040;-83
2022/06/12 07:48:54;;;;;;;18.50;6.10;;;;;;;17.17;72.41;102170.59;5015273;28;20041;-83
2022/06/12 07:51:21;;;;;;;20.00;5.07;;;;;;;17.25;71.91;102172.19;5015183;28;20128;-84
2022/06/12 07:53:48;;;;;;;19.83;4.87;;;;;;;17.35;72.25;102168.91;5015513;28;20025;-85
2022/06/12 07:56:15;;;;;;;15.77;4.20;;;;;;;17.41;69.34;102168.00;5015278;28;20070;-83
2022/06/12 07:58:45;;;;;;;17.35;4.75;;;;;;;17.52;69.34;102171.88;4998829;28;20076;-83
2022/06/12 08:01:17;;;;;;;21.70;5.20;;;;;;;17.62;69.60;102172.16;5016085;28;20044;-83
2022/06/12 08:03:42;;;;;;;19.60;4.72;;;;;;;17.69;69.42;102172.91;5016115;28;20397;-83
2022/06/12 08:06:08;;;;;;;16.07;4.43;;;;;;;17.85;69.62;102167.88;4998685;28;20034;-83
2022/06/12 08:08:34;;;;;;;17.53;5.20;;;;;;;17.93;69.12;102169.47;5016299;28;20064;-83
2022/06/12 08:11:01;;;;;;;16.60;4.60;;;;;;;18.04;68.38;102165.94;5018377;28;20126;-83
2022/06/12 08:13:27;;;;;;;15.13;5.32;;;;;;;18.27;66.29;102162.41;5036776;28;20025;-83
2022/06/12 08:15:54;;;;;;;11.63;4.30;;;;;;;18.60;64.14;102166.53;5018099;28;20061;-83
2022/06/12 08:18:21;;;;;;;16.80;4.30;;;;;;;18.95;63.58;102170.41;5036424;28;20037;-83
2022/06/12 08:20:51;;;;;;;19.58;4.97;;;;;;;19.11;62.57;102170.50;5018520;28;20075;-83
2022/06/12 08:23:33;;;;;;;18.33;4.60;;;;;;;19.34;62.71;102166.06;5018926;28;20033;-82
2022/06/12 08:26:13;;;;;;;20.98;4.35;;;;;;;19.43;60.75;102163.78;5018509;28;20037;-83
2022/06/12 08:28:42;;;;;;;14.35;4.40;;;;;;;19.50;60.58;102158.94;5036313;28;20030;-83
2022/06/12 08:31:11;;;;;;;16.80;4.53;;;;;;;19.61;60.58;102165.53;5036219;28;20041;-83
2022/06/12 08:33:38;;;;;;;16.80;4.95;;;;;;;19.65;60.52;102169.47;5036218;28;20022;-83
2022/06/12 08:36:05;;;;;;;15.48;4.80;;;;;;;19.71;60.44;102175.88;5036125;28;20056;-83
2022/06/12 08:38:31;;;;;;;14.60;4.82;;;;;;;19.78;59.87;102168.34;5018189;28;20033;-83
2022/06/12 08:41:33;;;;;;;15.30;4.30;;;;;;;19.63;60.69;102168.84;5035578;28;20036;-83
2022/06/12 08:44:23;;;;;;;17.75;4.65;;;;;;;19.68;61.17;102165.34;5020214;28;20478;-83
2022/06/12 08:46:53;;;;;;;15.07;5.40;;;;;;;20.02;59.85;102166.34;5018039;28;20035;-83
2022/06/12 08:49:35;;;;;;;19.27;4.93;;;;;;;20.32;59.67;102165.22;5018127;28;20444;-83
2022/06/12 08:52:18;;;;;;;14.97;4.33;;;;;;;20.40;57.66;102164.78;5017869;28;20037;-83
2022/06/12 08:55:01;;;;;;;12.80;3.80;;;;;;;20.41;57.11;102160.13;5018486;28;20504;-83
2022/06/12 08:57:34;;;;;;;12.10;4.15;;;;;;;20.21;57.42;102155.09;5035669;28;20033;-83
2022/06/12 09:00:06;;;;;;;13.80;4.18;;;;;;;20.19;58.17;102154.50;5018106;28;20069;-83
2022/06/12 09:02:37;;;;;;;14.15;4.03;;;;;;;20.22;56.52;102148.50;5017872;28;20401;-83
2022/06/12 09:05:05;;;;;;;17.53;4.57;;;;;;;20.18;55.38;102147.31;5018151;28;20033;-83
2022/06/12 09:07:56;;;;;;;13.85;4.00;;;;;;;20.12;57.20;102152.75;5035582;28;20034;-83
2022/06/12 09:10:37;;;;;;;14.25;4.22;;;;;;;20.23;58.03;102144.69;5017347;28;20120;-84
2022/06/12 09:13:10;;;;;;;15.73;3.42;;;;;;;20.24;52.31;102147.19;5017665;28;20025;-83
2022/06/12 09:16:05;;;;;;;14.63;3.88;;;;;;;20.23;55.20;102141.91;5017740;28;20103;-83
2022/06/12 09:18:57;;;;;;;11.80;3.53;;;;;;;20.15;55.13;102138.47;5017579;28;20063;-83
2022/06/12 09:21:42;;;;;;;14.18;3.83;;;;;;;20.05;55.80;102135.53;5034621;28;20029;-83
2022/06/12 09:24:26;;;;;;;14.20;4.18;;;;;;;20.14;54.93;102134.03;5035477;28;20083;-83
2022/06/12 09:26:51;;;;;;;14.15;4.25;;;;;;;20.46;53.40;102139.00;5017901;28;20380;-83
2022/06/12 09:29:26;;;;;;;11.93;3.93;;;;;;;20.74;53.39;102139.16;5017489;28;20037;-83
2022/06/12 09:32:15;;;;;;;13.32;4.30;;;;;;;20.89;52.02;102125.63;5017262;28;20044;-83
2022/06/12 09:35:09;;;;;;;13.75;4.10;;;;;;;20.95;50.51;102134.78;5035119;28;20036;-83
2022/06/12 09:40:38;;;;;;;13.18;4.60;;;;;;;21.42;51.80;102127.94;5034619;28;20041;-86
2022/06/12 09:43:03;;;;;;;13.50;4.55;;;;;;;21.73;49.13;102132.75;5017427;28;20029;-83
2022/06/12 09:45:41;;;;;;;10.17;4.77;;;;;;;21.86;50.35;102123.22;5035009;28;20580;-83
2022/06/12 09:48:23;;;;;;;12.85;4.60;;;;;;;22.00;49.86;102128.34;5017250;28;20100;-83
2022/06/12 09:50:48;;;;;;;13.82;4.35;;;;;;;21.94;48.77;102129.38;5017406;28;20033;-83
2022/06/12 09:53:23;;;;;;;12.40;4.10;;;;;;;21.84;49.19;102124.59;5016466;28;20500;-83
2022/06/12 09:55:56;;;;;;;11.85;4.03;;;;;;;21.94;47.91;102124.69;5017242;28;20037;-83
2022/06/12 09:58:35;;;;;;;12.03;3.37;;;;;;;22.23;47.67;102127.16;5034671;28;20033;-83
2022/06/12 10:01:04;;;;;;;16.27;4.28;;;;;;;22.46;47.40;102131.53;5016665;28;20060;-83
2022/06/12 10:03:40;;;;;;;11.75;3.75;;;;;;;22.65;47.12;102120.88;5034646;28;20022;-83
2022/06/12 10:06:17;;;;;;;16.85;4.00;;;;;;;22.57;46.90;102124.97;5016880;28;20029;-83
2022/06/12 10:08:55;;;;;;;13.68;3.47;;;;;;;23.00;46.10;102121.34;5016890;28;20392;-83
2022/06/12 10:11:31;;;;;;;12.07;3.13;;;;;;;23.14;45.15;102117.03;5034070;28;20057;-84
2022/06/12 10:14:18;;;;;;;11.00;3.63;;;;;;;23.09;45.87;102119.72;5016509;28;20050;-83
2022/06/12 10:17:02;;;;;;;13.05;4.30;;;;;;;22.75;46.43;102118.19;5034361;28;20381;-83
2022/06/12 10:19:41;;;;;;;13.93;4.18;;;;;;;23.21;45.35;102112.09;5016678;28;20120;-83
2022/06/12 10:22:18;;;;;;;13.88;3.85;;;;;;;23.64;45.18;102107.22;5016906;28;20507;-83
2022/06/12 10:24:43;;;;;;;12.93;3.90;;;;;;;23.43;44.59;102109.13;5016544;28;20037;-83
2022/06/12 10:27:16;;;;;;;12.18;4.07;;;;;;;22.81;45.74;102109.91;5000219;28;20042;-83
2022/06/12 10:29:51;;;;;;;15.23;4.00;;;;;;;22.42;47.32;102097.19;5016605;28;20072;-83
2022/06/12 10:32:27;;;;;;;11.90;3.83;;;;;;;22.59;47.46;102108.94;5016096;28;20025;-83
2022/06/12 10:35:17;;;;;;;14.98;3.78;;;;;;;22.75;46.36;102106.25;5016110;28;20040;-83
2022/06/12 10:37:44;;;;;;;11.90;3.33;;;;;;;22.57;45.05;102097.31;5016353;28;20037;-84
2022/06/12 10:40:18;;;;;;;12.75;3.30;;;;;;;22.42;45.83;102100.78;4999226;28;20052;-83
2022/06/12 10:42:50;;;;;;;10.37;3.73;;;;;;;22.39;45.83;102101.31;5015404;28;20029;-84
2022/06/12 10:45:27;;;;;;;17.98;4.45;;;;;;;22.63;45.85;102097.34;5033933;28;20076;-83
2022/06/12 10:47:57;;;;;;;13.60;4.13;;;;;;;23.11;44.58;102101.78;5034182;28;20070;-83
2022/06/12 10:50:31;;;;;;;12.35;2.90;;;;;;;23.22;43.89;102108.22;5016128;28;20036;-83
2022/06/12 10:53:03;;;;;;;8.00;2.90;;;;;;;23.22;43.24;102105.44;5033754;28;20030;-83
2022/06/12 10:55:42;;;;;;;9.57;3.17;;;;;;;23.04;43.34;102101.16;5016113;28;20025;-84
2022/06/12 10:58:16;;;;;;;9.45;3.38;;;;;;;23.33;43.65;102100.78;5033569;28;20033;-84
2022/06/12 11:00:48;;;;;;;13.30;3.30;;;;;;;23.61;43.17;102091.16;5033837;28;20037;-83
2022/06/12 11:03:27;;;;;;;12.70;3.15;;;;;;;23.76;42.17;102098.66;5015861;28;20033;-84
2022/06/12 11:06:11;;;;;;;9.98;3.22;;;;;;;23.76;41.20;102089.53;5033686;28;20037;-84
2022/06/12 11:09:04;;;;;;;10.50;3.30;;;;;;;23.94;42.93;102091.78;5016757;28;20428;-84
2022/06/12 11:11:32;;;;;;;12.20;3.45;;;;;;;24.22;40.45;102092.34;5015344;28;20033;-84
2022/06/12 11:14:16;;;;;;;14.65;3.28;;;;;;;24.18;41.64;102082.91;5015040;28;20467;-84
2022/06/12 11:17:17;;;;;;;11.32;3.08;;;;;;;24.55;41.59;102083.72;5015766;28;20037;-83
2022/06/12 11:19:57;;;;;;;9.63;2.58;;;;;;;24.86;38.55;102085.34;5033559;28;20025;-83
2022/06/12 11:22:26;;;;;;;10.53;3.10;;;;;;;25.76;37.04;102082.66;5015745;28;20033;-84
2022/06/12 11:25:13;;;;;;;11.98;2.90;;;;;;;26.07;38.04;102090.81;5015660;28;20117;-84
2022/06/12 11:27:55;;;;;;;11.88;3.25;;;;;;;27.43;34.60;102075.97;5015715;28;20042;-84
2022/06/12 11:30:22;;;;;;;10.27;2.95;;;;;;;26.91;34.66;102079.44;5015632;28;20037;-84
2022/06/12 11:33:08;;;;;;;13.38;3.05;;;;;;;26.00;36.84;102076.41;5033064;28;20033;-84
2022/06/12 11:35:55;;;;;;;10.57;3.23;;;;;;;25.20;38.53;102081.03;5015612;28;20095;-83
2022/06/12 11:38:39;;;;;;;12.00;2.92;;;;;;;24.57;39.13;102075.97;5002724;28;20045;-84
2022/06/12 11:41:43;;;;;;;9.02;2.83;;;;;;;26.24;36.17;102077.31;4991869;28;20038;-84
2022/06/12 11:44:15;;;;;;;8.98;2.70;;;;;;;28.78;32.38;102067.88;4994873;28;20034;-84
2022/06/12 11:46:43;;;;;;;9.57;2.75;;;;;;;30.57;29.38;102061.16;4996440;28;20092;-84
2022/06/12 11:49:37;;;;;;;7.20;2.57;;;;;;;31.35;27.26;102049.34;4998133;28;20062;-84
2022/06/12 11:52:14;;;;;;;7.55;2.65;;;;;;;30.40;27.50;102053.50;4996526;28;20050;-84
2022/06/12 11:54:57;;;;;;;9.70;2.70;;;;;;;29.86;28.96;102053.50;4997817;28;20038;-84